Timmins/Victor M. Power
CYTS : now visible

Airfield :











YOU CAN JOIN US ON...

 
LOGIN :

Register | Disclaimer

   EN    FR    IT 

 









Legend :    VFR   Marginal VFR   IFR   Intensive IFR   Very Intensive IFR
Visi :
Ceiling :
>= 8 km
>= 3000ft
5 to 8 km
1000 to 3000 ft
1500m to 5 km
500 to 1000 ft
800 to 1500m
200 to 500 ft
< 800m
< 200 ft
Symbols :   Thunderstorms  Fog  Heavy snow  Heavy precipitations  Wind > 20 kt






- Airport Elevation : 967 ft
- IATA code : YTS


CYTS - Timmins/Victor M. Power

CURRENT METAR :
  • 021700Z 26011G23KT 230V300 15SM BKN060 17/07 A2981 RMK SC6 SLP102 DENSITY ALT 1600FT

EXPIRED METARs :
  • 021600Z 30012G22KT 250V330 15SM BKN050 16/07 A2979 RMK CU7 SLP096 DENSITY ALT 1500FT
  • 021500Z 28013G23KT 15SM BKN040 14/06 A2978 RMK SC7 SLP092 DENSITY ALT 1300FT
  • 020300Z 14003KT 080V170 15SM FEW120 SCT240 10/08 A2976 RMK AC2CI1 SLP085

TAF TAF CYTS
Valid from the 02 at 14:00 until the 03 at 02:00 UTC


021341Z 0214/0302 28012G22KT P6SM BKN040
TEMPO 0214/0220 BKN020
FM022000 29010G20KT P6SM SCT020 OVC040
TEMPO 0220/0224 P6SM -SHRA OVC020
FM030000 30010KT P6SM -SHRA SCT008 OVC015
PROB30 0300/0302 OVC008 RMK NXT FCST BY 022000Z
CZYZ FIR / North America



MET'MAP, your aeronautical weather chart ! - Copyright ORBIFLY December 2007 - Disclaimer

ORBIFLY MET'MAP TEAM :

Programming & Development : Alexandra Zaïnal
Original concept : Baudouin d'Aumeries
Technical & hardware support : Manuel Goepfert
Assistance : Marc-Olivier Méhu




SOURCES & CREDITS :

   NOAA       Earth
Advisory